Terminal Aerodrome Forecast
Issued by NWS

Home | Current Version | Previous Version | Graphics & Text | Print | Product List | Glossary On
Versions: 1 2 3 4 5 6 7 8 9 10 11 12 13 14 15 16 17 18
803
FTUS43 KGRB 210903 AAA
TAFATW
TAF AMD
KATW 210903Z 2109/2206 19006KT P6SM SCT012 WS007/23030KT
      TEMPO 2109/2113 6SM BR BKN013
     FM211300 20009KT P6SM SCT015 BKN100
      TEMPO 2113/2116 31020G40KT 1SM TSRA BR BKN015CB
     FM211900 22011G20KT P6SM SCT035 BKN250
     FM220200 22006KT 3SM BR SCT250=

USA.gov is the U.S. government's official web portal to all federal, state and local government web resources and services.